sensor_id;sensor_type;location;lat;lon;timestamp;P1;durP1;ratioP1;P2;durP2;ratioP2
15669;SDS011;18524;45.190;5.732;2023-03-23T00:04:24;5.17;;;4.53;;
15669;SDS011;18524;45.190;5.732;2023-03-23T00:09:17;5.13;;;4.63;;
15669;SDS011;18524;45.190;5.732;2023-03-23T00:14:13;6.67;;;5.10;;
15669;SDS011;18524;45.190;5.732;2023-03-23T00:19:05;7.43;;;5.20;;
15669;SDS011;18524;45.190;5.732;2023-03-23T00:23:57;4.30;;;3.63;;
15669;SDS011;18524;45.190;5.732;2023-03-23T00:28:49;4.87;;;3.30;;
15669;SDS011;18524;45.190;5.732;2023-03-23T00:33:41;3.93;;;2.83;;
15669;SDS011;18524;45.190;5.732;2023-03-23T00:38:31;3.20;;;2.90;;
15669;SDS011;18524;45.190;5.732;2023-03-23T00:43:22;4.03;;;3.50;;
15669;SDS011;18524;45.190;5.732;2023-03-23T00:48:14;3.73;;;3.40;;
15669;SDS011;18524;45.190;5.732;2023-03-23T00:53:05;3.47;;;2.90;;
15669;SDS011;18524;45.190;5.732;2023-03-23T00:57:56;3.57;;;3.20;;
15669;SDS011;18524;45.190;5.732;2023-03-23T01:02:46;4.37;;;3.70;;
15669;SDS011;18524;45.190;5.732;2023-03-23T01:07:37;4.40;;;3.80;;
15669;SDS011;18524;45.190;5.732;2023-03-23T01:12:27;4.67;;;3.40;;
15669;SDS011;18524;45.190;5.732;2023-03-23T01:17:18;3.40;;;3.10;;
15669;SDS011;18524;45.190;5.732;2023-03-23T01:22:09;5.20;;;3.43;;
15669;SDS011;18524;45.190;5.732;2023-03-23T01:27:00;5.10;;;3.90;;
15669;SDS011;18524;45.190;5.732;2023-03-23T01:31:56;4.00;;;3.60;;
15669;SDS011;18524;45.190;5.732;2023-03-23T01:36:46;5.70;;;3.40;;
15669;SDS011;18524;45.190;5.732;2023-03-23T01:41:37;5.40;;;3.37;;
15669;SDS011;18524;45.190;5.732;2023-03-23T01:46:30;4.67;;;3.77;;
15669;SDS011;18524;45.190;5.732;2023-03-23T01:51:22;4.63;;;3.50;;
15669;SDS011;18524;45.190;5.732;2023-03-23T01:56:12;5.03;;;3.57;;
15669;SDS011;18524;45.190;5.732;2023-03-23T02:01:08;5.40;;;3.43;;
15669;SDS011;18524;45.190;5.732;2023-03-23T02:06:01;5.20;;;3.43;;
15669;SDS011;18524;45.190;5.732;2023-03-23T02:10:52;4.07;;;3.53;;
15669;SDS011;18524;45.190;5.732;2023-03-23T02:32:01;6.20;;;3.70;;
15669;SDS011;18524;45.190;5.732;2023-03-23T02:37:04;5.07;;;3.50;;
15669;SDS011;18524;45.190;5.732;2023-03-23T02:42:02;3.77;;;3.40;;
15669;SDS011;18524;45.190;5.732;2023-03-23T02:46:56;6.43;;;5.00;;
15669;SDS011;18524;45.190;5.732;2023-03-23T02:51:49;6.97;;;4.60;;
15669;SDS011;18524;45.190;5.732;2023-03-23T02:56:41;6.40;;;4.17;;
15669;SDS011;18524;45.190;5.732;2023-03-23T03:11:31;7.57;;;4.00;;
15669;SDS011;18524;45.190;5.732;2023-03-23T03:16:31;4.03;;;3.37;;
15669;SDS011;18524;45.190;5.732;2023-03-23T03:21:27;3.77;;;3.40;;
15669;SDS011;18524;45.190;5.732;2023-03-23T03:26:20;4.80;;;3.40;;
15669;SDS011;18524;45.190;5.732;2023-03-23T03:31:19;5.70;;;3.40;;
15669;SDS011;18524;45.190;5.732;2023-03-23T03:36:18;4.93;;;3.60;;
15669;SDS011;18524;45.190;5.732;2023-03-23T03:41:11;4.33;;;3.37;;
15669;SDS011;18524;45.190;5.732;2023-03-23T03:46:02;4.80;;;3.20;;
15669;SDS011;18524;45.190;5.732;2023-03-23T03:50:52;4.70;;;3.30;;
15669;SDS011;18524;45.190;5.732;2023-03-23T03:55:46;3.63;;;3.20;;
15669;SDS011;18524;45.190;5.732;2023-03-23T04:00:38;6.13;;;3.30;;
15669;SDS011;18524;45.190;5.732;2023-03-23T04:05:29;4.00;;;3.33;;
15669;SDS011;18524;45.190;5.732;2023-03-23T04:10:20;3.73;;;3.40;;
15669;SDS011;18524;45.190;5.732;2023-03-23T04:15:13;3.50;;;3.20;;
15669;SDS011;18524;45.190;5.732;2023-03-23T04:20:04;3.97;;;3.23;;
15669;SDS011;18524;45.190;5.732;2023-03-23T04:24:59;3.97;;;3.40;;
15669;SDS011;18524;45.190;5.732;2023-03-23T04:29:52;4.97;;;3.57;;
15669;SDS011;18524;45.190;5.732;2023-03-23T04:34:43;3.77;;;3.13;;
15669;SDS011;18524;45.190;5.732;2023-03-23T04:39:34;4.13;;;3.57;;
15669;SDS011;18524;45.190;5.732;2023-03-23T04:44:24;4.20;;;3.23;;
15669;SDS011;18524;45.190;5.732;2023-03-23T04:49:15;4.23;;;3.33;;
15669;SDS011;18524;45.190;5.732;2023-03-23T04:54:10;4.10;;;3.50;;
15669;SDS011;18524;45.190;5.732;2023-03-23T04:59:01;4.10;;;3.70;;
15669;SDS011;18524;45.190;5.732;2023-03-23T05:03:51;4.17;;;3.40;;
15669;SDS011;18524;45.190;5.732;2023-03-23T05:08:42;4.83;;;3.50;;
15669;SDS011;18524;45.190;5.732;2023-03-23T05:13:32;5.10;;;3.67;;
15669;SDS011;18524;45.190;5.732;2023-03-23T05:18:22;5.27;;;3.50;;
15669;SDS011;18524;45.190;5.732;2023-03-23T05:23:13;5.83;;;3.33;;
15669;SDS011;18524;45.190;5.732;2023-03-23T05:28:04;5.37;;;3.70;;
15669;SDS011;18524;45.190;5.732;2023-03-23T05:32:54;3.60;;;2.93;;
15669;SDS011;18524;45.190;5.732;2023-03-23T05:37:45;3.20;;;2.90;;
15669;SDS011;18524;45.190;5.732;2023-03-23T05:42:35;5.17;;;3.30;;
15669;SDS011;18524;45.190;5.732;2023-03-23T05:47:26;3.77;;;3.30;;
15669;SDS011;18524;45.190;5.732;2023-03-23T05:52:18;4.63;;;3.33;;
15669;SDS011;18524;45.190;5.732;2023-03-23T05:57:08;4.63;;;3.20;;
15669;SDS011;18524;45.190;5.732;2023-03-23T06:01:59;3.77;;;3.23;;
15669;SDS011;18524;45.190;5.732;2023-03-23T06:06:50;3.90;;;3.37;;
15669;SDS011;18524;45.190;5.732;2023-03-23T06:11:41;5.83;;;3.57;;
15669;SDS011;18524;45.190;5.732;2023-03-23T06:16:32;3.50;;;3.20;;
15669;SDS011;18524;45.190;5.732;2023-03-23T06:21:22;4.13;;;3.37;;
15669;SDS011;18524;45.190;5.732;2023-03-23T06:26:13;5.77;;;3.20;;
15669;SDS011;18524;45.190;5.732;2023-03-23T06:31:06;5.10;;;2.90;;
15669;SDS011;18524;45.190;5.732;2023-03-23T06:35:57;3.63;;;3.10;;
15669;SDS011;18524;45.190;5.732;2023-03-23T06:40:51;4.57;;;3.50;;
15669;SDS011;18524;45.190;5.732;2023-03-23T06:45:45;7.47;;;3.63;;
15669;SDS011;18524;45.190;5.732;2023-03-23T06:50:36;4.80;;;3.73;;
15669;SDS011;18524;45.190;5.732;2023-03-23T06:55:26;7.23;;;4.27;;
15669;SDS011;18524;45.190;5.732;2023-03-23T07:00:16;4.10;;;3.47;;
15669;SDS011;18524;45.190;5.732;2023-03-23T07:05:08;7.37;;;3.77;;
15669;SDS011;18524;45.190;5.732;2023-03-23T07:10:00;7.00;;;3.57;;
15669;SDS011;18524;45.190;5.732;2023-03-23T07:14:52;9.00;;;4.23;;
15669;SDS011;18524;45.190;5.732;2023-03-23T07:19:42;4.10;;;3.50;;
15669;SDS011;18524;45.190;5.732;2023-03-23T07:24:33;5.10;;;3.57;;
15669;SDS011;18524;45.190;5.732;2023-03-23T07:29:24;4.13;;;3.57;;
15669;SDS011;18524;45.190;5.732;2023-03-23T07:34:15;6.13;;;3.30;;
15669;SDS011;18524;45.190;5.732;2023-03-23T07:39:05;5.83;;;3.60;;
15669;SDS011;18524;45.190;5.732;2023-03-23T07:43:56;6.47;;;4.07;;
15669;SDS011;18524;45.190;5.732;2023-03-23T07:48:46;5.67;;;3.00;;
15669;SDS011;18524;45.190;5.732;2023-03-23T07:53:36;3.93;;;2.90;;
15669;SDS011;18524;45.190;5.732;2023-03-23T07:58:27;5.73;;;3.30;;
15669;SDS011;18524;45.190;5.732;2023-03-23T08:03:18;5.50;;;2.90;;
15669;SDS011;18524;45.190;5.732;2023-03-23T08:08:09;7.27;;;3.27;;
15669;SDS011;18524;45.190;5.732;2023-03-23T08:12:59;8.37;;;4.60;;
15669;SDS011;18524;45.190;5.732;2023-03-23T08:17:50;11.17;;;4.50;;
15669;SDS011;18524;45.190;5.732;2023-03-23T08:22:42;13.20;;;6.30;;
15669;SDS011;18524;45.190;5.732;2023-03-23T08:27:35;4.70;;;3.33;;
15669;SDS011;18524;45.190;5.732;2023-03-23T08:32:25;5.37;;;3.30;;
15669;SDS011;18524;45.190;5.732;2023-03-23T08:37:16;8.23;;;3.70;;
15669;SDS011;18524;45.190;5.732;2023-03-23T08:42:07;4.87;;;3.60;;
15669;SDS011;18524;45.190;5.732;2023-03-23T08:46:57;3.77;;;3.47;;
15669;SDS011;18524;45.190;5.732;2023-03-23T08:51:48;4.33;;;3.73;;
15669;SDS011;18524;45.190;5.732;2023-03-23T08:56:38;7.03;;;4.37;;
15669;SDS011;18524;45.190;5.732;2023-03-23T09:01:28;7.33;;;5.03;;
15669;SDS011;18524;45.190;5.732;2023-03-23T09:06:19;7.53;;;5.50;;
15669;SDS011;18524;45.190;5.732;2023-03-23T09:11:10;7.77;;;5.43;;
15669;SDS011;18524;45.190;5.732;2023-03-23T09:16:01;6.20;;;5.60;;
15669;SDS011;18524;45.190;5.732;2023-03-23T09:20:53;6.90;;;5.83;;
15669;SDS011;18524;45.190;5.732;2023-03-23T09:25:44;9.17;;;6.50;;
15669;SDS011;18524;45.190;5.732;2023-03-23T09:30:34;7.70;;;6.50;;
15669;SDS011;18524;45.190;5.732;2023-03-23T09:35:26;7.33;;;6.30;;
15669;SDS011;18524;45.190;5.732;2023-03-23T09:40:19;6.53;;;5.80;;
15669;SDS011;18524;45.190;5.732;2023-03-23T09:45:15;6.40;;;5.53;;
15669;SDS011;18524;45.190;5.732;2023-03-23T09:50:15;8.17;;;5.70;;
15669;SDS011;18524;45.190;5.732;2023-03-23T09:55:09;6.53;;;5.40;;
15669;SDS011;18524;45.190;5.732;2023-03-23T10:05:13;10.20;;;7.17;;
15669;SDS011;18524;45.190;5.732;2023-03-23T10:10:08;11.03;;;8.77;;
15669;SDS011;18524;45.190;5.732;2023-03-23T10:15:14;12.43;;;8.93;;
15669;SDS011;18524;45.190;5.732;2023-03-23T10:20:19;12.63;;;9.87;;
15669;SDS011;18524;45.190;5.732;2023-03-23T10:25:15;15.23;;;11.50;;
15669;SDS011;18524;45.190;5.732;2023-03-23T10:35:26;15.50;;;12.90;;
15669;SDS011;18524;45.190;5.732;2023-03-23T10:40:24;16.27;;;13.53;;
15669;SDS011;18524;45.190;5.732;2023-03-23T10:45:19;16.37;;;14.27;;
15669;SDS011;18524;45.190;5.732;2023-03-23T10:50:13;17.23;;;14.17;;
15669;SDS011;18524;45.190;5.732;2023-03-23T11:00:03;17.57;;;14.00;;
15669;SDS011;18524;45.190;5.732;2023-03-23T11:05:23;17.00;;;12.60;;
15669;SDS011;18524;45.190;5.732;2023-03-23T11:10:21;14.93;;;12.20;;
15669;SDS011;18524;45.190;5.732;2023-03-23T11:15:21;17.80;;;13.37;;
15669;SDS011;18524;45.190;5.732;2023-03-23T11:20:18;14.73;;;13.17;;
15669;SDS011;18524;45.190;5.732;2023-03-23T11:25:12;13.90;;;12.40;;
15669;SDS011;18524;45.190;5.732;2023-03-23T11:30:11;17.83;;;12.83;;
15669;SDS011;18524;45.190;5.732;2023-03-23T11:35:26;14.77;;;13.23;;
15669;SDS011;18524;45.190;5.732;2023-03-23T11:40:19;19.27;;;15.27;;
15669;SDS011;18524;45.190;5.732;2023-03-23T11:45:17;16.20;;;13.33;;
15669;SDS011;18524;45.190;5.732;2023-03-23T11:50:21;17.53;;;14.03;;
15669;SDS011;18524;45.190;5.732;2023-03-23T12:00:28;14.83;;;12.60;;
15669;SDS011;18524;45.190;5.732;2023-03-23T12:05:26;13.40;;;12.03;;
15669;SDS011;18524;45.190;5.732;2023-03-23T12:32:07;15.50;;;13.10;;
15669;SDS011;18524;45.190;5.732;2023-03-23T12:36:50;15.87;;;13.40;;
15669;SDS011;18524;45.190;5.732;2023-03-23T12:51:54;15.57;;;13.87;;
15669;SDS011;18524;45.190;5.732;2023-03-23T12:56:53;18.20;;;14.30;;
15669;SDS011;18524;45.190;5.732;2023-03-23T13:01:50;16.03;;;14.37;;
15669;SDS011;18524;45.190;5.732;2023-03-23T13:06:47;16.13;;;14.03;;
15669;SDS011;18524;45.190;5.732;2023-03-23T13:11:39;18.17;;;15.23;;
15669;SDS011;18524;45.190;5.732;2023-03-23T13:16:37;18.13;;;15.23;;
15669;SDS011;18524;45.190;5.732;2023-03-23T13:21:44;17.40;;;15.60;;
15669;SDS011;18524;45.190;5.732;2023-03-23T13:26:50;18.90;;;14.77;;
15669;SDS011;18524;45.190;5.732;2023-03-23T13:31:41;16.83;;;14.43;;
15669;SDS011;18524;45.190;5.732;2023-03-23T13:36:34;17.63;;;14.20;;
15669;SDS011;18524;45.190;5.732;2023-03-23T13:41:29;16.47;;;14.07;;
15669;SDS011;18524;45.190;5.732;2023-03-23T13:51:25;16.80;;;13.57;;
15669;SDS011;18524;45.190;5.732;2023-03-23T13:56:54;15.33;;;13.53;;
15669;SDS011;18524;45.190;5.732;2023-03-23T14:01:50;15.17;;;13.67;;
15669;SDS011;18524;45.190;5.732;2023-03-23T14:06:41;15.10;;;13.47;;
15669;SDS011;18524;45.190;5.732;2023-03-23T14:11:33;16.80;;;14.20;;
15669;SDS011;18524;45.190;5.732;2023-03-23T14:22:15;13.90;;;12.43;;
15669;SDS011;18524;45.190;5.732;2023-03-23T14:26:40;13.73;;;11.90;;
15669;SDS011;18524;45.190;5.732;2023-03-23T14:31:32;14.70;;;13.03;;
15669;SDS011;18524;45.190;5.732;2023-03-23T14:36:23;17.60;;;13.03;;
15669;SDS011;18524;45.190;5.732;2023-03-23T14:41:17;16.17;;;12.80;;
15669;SDS011;18524;45.190;5.732;2023-03-23T14:46:08;16.70;;;13.13;;
15669;SDS011;18524;45.190;5.732;2023-03-23T14:51:02;15.53;;;11.93;;
15669;SDS011;18524;45.190;5.732;2023-03-23T14:55:55;14.57;;;11.63;;
15669;SDS011;18524;45.190;5.732;2023-03-23T15:01:23;12.80;;;11.50;;
15669;SDS011;18524;45.190;5.732;2023-03-23T15:06:14;13.70;;;11.17;;
15669;SDS011;18524;45.190;5.732;2023-03-23T15:11:22;13.17;;;10.73;;
15669;SDS011;18524;45.190;5.732;2023-03-23T15:16:18;12.00;;;10.73;;
15669;SDS011;18524;45.190;5.732;2023-03-23T15:21:18;13.17;;;10.60;;
15669;SDS011;18524;45.190;5.732;2023-03-23T15:26:19;12.27;;;10.97;;
15669;SDS011;18524;45.190;5.732;2023-03-23T15:31:22;14.27;;;10.77;;
15669;SDS011;18524;45.190;5.732;2023-03-23T15:36:16;12.70;;;10.37;;
15669;SDS011;18524;45.190;5.732;2023-03-23T15:41:22;13.03;;;10.30;;
15669;SDS011;18524;45.190;5.732;2023-03-23T15:51:05;13.13;;;10.40;;
15669;SDS011;18524;45.190;5.732;2023-03-23T15:56:01;12.57;;;10.27;;
15669;SDS011;18524;45.190;5.732;2023-03-23T16:00:53;11.57;;;10.37;;
15669;SDS011;18524;45.190;5.732;2023-03-23T16:05:43;13.63;;;10.53;;
15669;SDS011;18524;45.190;5.732;2023-03-23T16:10:34;13.07;;;10.53;;
15669;SDS011;18524;45.190;5.732;2023-03-23T16:15:25;13.10;;;11.20;;
15669;SDS011;18524;45.190;5.732;2023-03-23T16:20:17;12.07;;;10.97;;
15669;SDS011;18524;45.190;5.732;2023-03-23T16:25:09;15.87;;;11.23;;
15669;SDS011;18524;45.190;5.732;2023-03-23T16:30:00;12.27;;;10.97;;
15669;SDS011;18524;45.190;5.732;2023-03-23T16:34:52;13.33;;;10.90;;
15669;SDS011;18524;45.190;5.732;2023-03-23T16:39:42;12.03;;;10.60;;
15669;SDS011;18524;45.190;5.732;2023-03-23T16:44:33;12.10;;;10.80;;
15669;SDS011;18524;45.190;5.732;2023-03-23T16:49:23;15.93;;;10.90;;
15669;SDS011;18524;45.190;5.732;2023-03-23T16:54:14;12.07;;;10.77;;
15669;SDS011;18524;45.190;5.732;2023-03-23T16:59:04;14.50;;;11.13;;
15669;SDS011;18524;45.190;5.732;2023-03-23T17:03:55;15.33;;;10.90;;
15669;SDS011;18524;45.190;5.732;2023-03-23T17:08:45;13.80;;;11.43;;
15669;SDS011;18524;45.190;5.732;2023-03-23T17:13:35;12.90;;;11.30;;
15669;SDS011;18524;45.190;5.732;2023-03-23T17:18:26;13.87;;;11.20;;
15669;SDS011;18524;45.190;5.732;2023-03-23T17:23:18;14.83;;;11.57;;
15669;SDS011;18524;45.190;5.732;2023-03-23T17:28:08;12.70;;;11.37;;
15669;SDS011;18524;45.190;5.732;2023-03-23T17:32:58;14.57;;;11.33;;
15669;SDS011;18524;45.190;5.732;2023-03-23T17:37:49;16.40;;;12.20;;
15669;SDS011;18524;45.190;5.732;2023-03-23T17:42:39;13.83;;;12.37;;
15669;SDS011;18524;45.190;5.732;2023-03-23T17:47:30;13.87;;;12.13;;
15669;SDS011;18524;45.190;5.732;2023-03-23T17:52:21;15.60;;;12.73;;
15669;SDS011;18524;45.190;5.732;2023-03-23T17:57:12;16.63;;;12.87;;
15669;SDS011;18524;45.190;5.732;2023-03-23T18:02:02;17.80;;;13.30;;
15669;SDS011;18524;45.190;5.732;2023-03-23T18:06:55;14.27;;;12.37;;
15669;SDS011;18524;45.190;5.732;2023-03-23T18:11:46;15.33;;;13.73;;
15669;SDS011;18524;45.190;5.732;2023-03-23T18:16:37;14.73;;;13.00;;
15669;SDS011;18524;45.190;5.732;2023-03-23T18:21:27;15.60;;;13.00;;
15669;SDS011;18524;45.190;5.732;2023-03-23T18:26:18;15.93;;;12.10;;
15669;SDS011;18524;45.190;5.732;2023-03-23T18:31:12;16.17;;;14.10;;
15669;SDS011;18524;45.190;5.732;2023-03-23T18:36:04;16.57;;;14.87;;
15669;SDS011;18524;45.190;5.732;2023-03-23T18:40:56;16.13;;;13.83;;
15669;SDS011;18524;45.190;5.732;2023-03-23T18:45:53;16.73;;;14.67;;
15669;SDS011;18524;45.190;5.732;2023-03-23T18:50:46;19.00;;;14.37;;
15669;SDS011;18524;45.190;5.732;2023-03-23T18:55:37;24.03;;;17.23;;
15669;SDS011;18524;45.190;5.732;2023-03-23T19:00:28;22.00;;;18.03;;
15669;SDS011;18524;45.190;5.732;2023-03-23T19:05:19;24.10;;;19.17;;
15669;SDS011;18524;45.190;5.732;2023-03-23T19:10:09;23.57;;;19.00;;
15669;SDS011;18524;45.190;5.732;2023-03-23T19:15:00;32.23;;;22.83;;
15669;SDS011;18524;45.190;5.732;2023-03-23T19:19:50;29.93;;;22.50;;
15669;SDS011;18524;45.190;5.732;2023-03-23T19:24:41;35.27;;;23.67;;
15669;SDS011;18524;45.190;5.732;2023-03-23T19:29:31;31.23;;;23.43;;
15669;SDS011;18524;45.190;5.732;2023-03-23T19:34:22;27.30;;;20.27;;
15669;SDS011;18524;45.190;5.732;2023-03-23T19:39:14;27.60;;;20.93;;
15669;SDS011;18524;45.190;5.732;2023-03-23T19:44:04;25.17;;;20.73;;
15669;SDS011;18524;45.190;5.732;2023-03-23T19:48:55;29.63;;;19.63;;
15669;SDS011;18524;45.190;5.732;2023-03-23T19:53:46;22.53;;;20.13;;
15669;SDS011;18524;45.190;5.732;2023-03-23T19:58:37;26.33;;;20.63;;
15669;SDS011;18524;45.190;5.732;2023-03-23T20:03:27;25.77;;;19.20;;
15669;SDS011;18524;45.190;5.732;2023-03-23T20:08:18;21.73;;;18.27;;
15669;SDS011;18524;45.190;5.732;2023-03-23T20:13:08;23.07;;;18.07;;
15669;SDS011;18524;45.190;5.732;2023-03-23T20:18:00;22.17;;;18.17;;
15669;SDS011;18524;45.190;5.732;2023-03-23T20:22:50;22.90;;;18.10;;
15669;SDS011;18524;45.190;5.732;2023-03-23T20:27:42;19.47;;;16.67;;
15669;SDS011;18524;45.190;5.732;2023-03-23T20:32:33;19.63;;;16.90;;
15669;SDS011;18524;45.190;5.732;2023-03-23T20:37:26;20.07;;;17.43;;
15669;SDS011;18524;45.190;5.732;2023-03-23T20:42:16;20.43;;;18.33;;
15669;SDS011;18524;45.190;5.732;2023-03-23T20:47:07;19.67;;;16.93;;
15669;SDS011;18524;45.190;5.732;2023-03-23T20:51:59;21.60;;;17.93;;
15669;SDS011;18524;45.190;5.732;2023-03-23T20:56:51;19.93;;;15.87;;
15669;SDS011;18524;45.190;5.732;2023-03-23T21:01:42;22.03;;;16.70;;
15669;SDS011;18524;45.190;5.732;2023-03-23T21:06:33;19.23;;;16.17;;
15669;SDS011;18524;45.190;5.732;2023-03-23T21:11:26;17.83;;;15.93;;
15669;SDS011;18524;45.190;5.732;2023-03-23T21:16:16;18.97;;;16.70;;
15669;SDS011;18524;45.190;5.732;2023-03-23T21:21:07;20.57;;;18.37;;
15669;SDS011;18524;45.190;5.732;2023-03-23T21:26:00;24.23;;;19.73;;
15669;SDS011;18524;45.190;5.732;2023-03-23T21:30:53;22.03;;;19.67;;
15669;SDS011;18524;45.190;5.732;2023-03-23T21:35:48;21.67;;;19.37;;
15669;SDS011;18524;45.190;5.732;2023-03-23T21:40:41;23.43;;;17.77;;
15669;SDS011;18524;45.190;5.732;2023-03-23T21:45:32;23.90;;;20.67;;
15669;SDS011;18524;45.190;5.732;2023-03-23T21:50:23;23.30;;;19.90;;
15669;SDS011;18524;45.190;5.732;2023-03-23T21:55:14;23.13;;;20.60;;
15669;SDS011;18524;45.190;5.732;2023-03-23T22:00:06;24.93;;;20.93;;
15669;SDS011;18524;45.190;5.732;2023-03-23T22:04:58;27.07;;;21.23;;
15669;SDS011;18524;45.190;5.732;2023-03-23T22:09:49;24.43;;;20.63;;
15669;SDS011;18524;45.190;5.732;2023-03-23T22:14:40;24.53;;;20.57;;
15669;SDS011;18524;45.190;5.732;2023-03-23T22:19:30;25.03;;;21.10;;
15669;SDS011;18524;45.190;5.732;2023-03-23T22:24:22;23.13;;;20.63;;
15669;SDS011;18524;45.190;5.732;2023-03-23T22:29:12;24.23;;;19.97;;
15669;SDS011;18524;45.190;5.732;2023-03-23T22:34:06;22.90;;;20.47;;
15669;SDS011;18524;45.190;5.732;2023-03-23T22:38:56;25.30;;;20.27;;
15669;SDS011;18524;45.190;5.732;2023-03-23T22:43:46;25.00;;;19.37;;
15669;SDS011;18524;45.190;5.732;2023-03-23T22:48:37;23.57;;;19.87;;
15669;SDS011;18524;45.190;5.732;2023-03-23T22:53:28;25.33;;;20.50;;
15669;SDS011;18524;45.190;5.732;2023-03-23T22:58:19;22.17;;;19.77;;
15669;SDS011;18524;45.190;5.732;2023-03-23T23:03:10;21.30;;;18.40;;
15669;SDS011;18524;45.190;5.732;2023-03-23T23:08:01;20.63;;;18.10;;
15669;SDS011;18524;45.190;5.732;2023-03-23T23:12:51;20.47;;;16.70;;
15669;SDS011;18524;45.190;5.732;2023-03-23T23:17:43;18.53;;;16.60;;
15669;SDS011;18524;45.190;5.732;2023-03-23T23:22:33;18.80;;;16.77;;
15669;SDS011;18524;45.190;5.732;2023-03-23T23:27:24;20.20;;;18.03;;
15669;SDS011;18524;45.190;5.732;2023-03-23T23:32:14;20.77;;;17.07;;
15669;SDS011;18524;45.190;5.732;2023-03-23T23:37:05;20.17;;;15.30;;
15669;SDS011;18524;45.190;5.732;2023-03-23T23:41:57;18.23;;;16.40;;
15669;SDS011;18524;45.190;5.732;2023-03-23T23:46:48;18.57;;;16.67;;
15669;SDS011;18524;45.190;5.732;2023-03-23T23:51:38;20.30;;;15.87;;
15669;SDS011;18524;45.190;5.732;2023-03-23T23:56:30;19.43;;;17.20;;
